createdAt,value
2022-12-18T00:01:27.662Z,22.70
2022-12-18T00:03:56.963Z,21.60
2022-12-18T00:06:27.978Z,22.10
2022-12-18T00:08:57.451Z,21.70
2022-12-18T00:11:28.527Z,22.90
2022-12-18T00:13:58.187Z,23.80
2022-12-18T00:16:27.580Z,22.60
2022-12-18T00:18:57.996Z,23.90
2022-12-18T00:21:27.170Z,21.90
2022-12-18T00:23:56.449Z,23.10
2022-12-18T00:26:29.196Z,23.40
2022-12-18T00:29:02.340Z,24.10
2022-12-18T00:31:32.599Z,25.00
2022-12-18T00:34:01.726Z,24.60
2022-12-18T00:36:32.857Z,25.00
2022-12-18T00:39:06.195Z,24.90
2022-12-18T00:41:52.834Z,24.20
2022-12-18T00:44:21.175Z,25.70
2022-12-18T00:46:49.299Z,22.80
2022-12-18T00:49:20.196Z,22.60
2022-12-18T00:51:49.229Z,20.60
2022-12-18T00:54:18.481Z,20.30
2022-12-18T00:56:49.338Z,21.20
2022-12-18T00:59:18.957Z,20.90
2022-12-18T01:01:47.617Z,20.00
2022-12-18T01:04:16.235Z,21.20
2022-12-18T01:06:46.719Z,19.30
2022-12-18T01:09:14.757Z,21.10
2022-12-18T01:11:42.543Z,22.20
2022-12-18T01:14:11.313Z,22.30
2022-12-18T01:16:39.639Z,23.00
2022-12-18T01:19:07.768Z,22.90
2022-12-18T01:21:35.627Z,24.00
2022-12-18T01:24:06.075Z,23.70
2022-12-18T01:26:34.284Z,23.90
2022-12-18T01:29:02.253Z,23.60
2022-12-18T01:31:33.434Z,23.50
2022-12-18T01:34:05.500Z,22.60
2022-12-18T01:36:35.869Z,23.80
2022-12-18T01:39:07.865Z,22.30
2022-12-18T01:41:55.926Z,21.80
2022-12-18T01:44:56.424Z,19.70
2022-12-18T01:47:39.062Z,20.90
2022-12-18T01:50:17.646Z,19.50
2022-12-18T01:52:49.939Z,20.80
2022-12-18T01:55:21.295Z,19.80
2022-12-18T01:57:53.227Z,20.90
2022-12-18T02:00:23.491Z,20.60
2022-12-18T02:02:53.044Z,21.10
2022-12-18T02:05:33.025Z,21.40
2022-12-18T02:08:19.646Z,22.70
2022-12-18T02:13:41.982Z,21.20
2022-12-18T02:16:38.221Z,21.10
2022-12-18T02:19:30.070Z,22.40
2022-12-18T02:22:28.573Z,20.60
2022-12-18T02:25:14.602Z,20.60
2022-12-18T02:27:47.426Z,20.40
2022-12-18T02:30:16.437Z,20.70
2022-12-18T02:32:50.616Z,20.90
2022-12-18T02:35:24.895Z,21.90
2022-12-18T02:37:55.581Z,22.10
2022-12-18T02:40:27.375Z,23.00
2022-12-18T02:42:55.752Z,25.00
2022-12-18T02:45:25.123Z,23.60
2022-12-18T02:47:53.645Z,23.00
2022-12-18T02:50:44.683Z,21.30
2022-12-18T02:53:21.246Z,21.40
2022-12-18T02:56:08.385Z,20.70
2022-12-18T02:58:52.744Z,20.00
2022-12-18T03:01:44.162Z,19.60
2022-12-18T03:04:19.422Z,18.60
2022-12-18T03:06:52.259Z,18.30
2022-12-18T03:09:25.812Z,18.50
2022-12-18T03:12:11.484Z,18.50
2022-12-18T03:14:41.413Z,19.20
2022-12-18T03:17:14.555Z,19.30
2022-12-18T03:19:43.942Z,19.60
2022-12-18T03:22:12.560Z,19.40
2022-12-18T03:24:47.742Z,19.00
2022-12-18T03:27:19.132Z,20.10
2022-12-18T03:29:51.976Z,21.70
2022-12-18T03:32:29.818Z,22.30
2022-12-18T03:35:03.951Z,22.80
2022-12-18T03:37:34.697Z,22.00
2022-12-18T03:40:03.447Z,21.40
2022-12-18T03:42:53.860Z,21.70
2022-12-18T03:45:33.314Z,22.20
2022-12-18T03:48:12.309Z,23.50
2022-12-18T03:50:49.984Z,23.50
2022-12-18T03:53:45.971Z,23.40
2022-12-18T03:56:17.220Z,25.40
2022-12-18T03:58:47.072Z,25.30
2022-12-18T04:01:21.575Z,23.80
2022-12-18T04:03:51.637Z,25.60
2022-12-18T04:06:21.128Z,24.30
2022-12-18T04:08:49.357Z,25.40
2022-12-18T04:11:19.258Z,23.80
2022-12-18T04:13:47.179Z,22.90
2022-12-18T04:16:22.252Z,23.50
2022-12-18T04:18:52.994Z,20.30
2022-12-18T04:21:22.039Z,20.70
2022-12-18T04:23:50.437Z,20.80
2022-12-18T04:26:19.546Z,19.60
2022-12-18T04:29:00.131Z,20.90
2022-12-18T04:31:30.301Z,20.40
2022-12-18T04:33:58.224Z,20.40
2022-12-18T04:36:26.326Z,19.20
2022-12-18T04:38:54.352Z,19.10
2022-12-18T04:41:22.529Z,20.50
2022-12-18T04:43:50.631Z,22.30
2022-12-18T04:46:18.474Z,24.10
2022-12-18T04:48:47.750Z,20.00
2022-12-18T04:51:15.670Z,21.70
2022-12-18T04:53:43.753Z,21.30
2022-12-18T04:56:14.959Z,22.80
2022-12-18T04:58:45.009Z,21.50
2022-12-18T05:01:14.886Z,22.30
2022-12-18T05:03:44.227Z,22.80
2022-12-18T05:06:12.408Z,22.90
2022-12-18T05:08:40.475Z,25.10
2022-12-18T05:11:12.555Z,23.50
2022-12-18T05:13:40.598Z,23.30
2022-12-18T05:16:09.858Z,23.50
2022-12-18T05:18:38.161Z,23.40
2022-12-18T05:21:06.280Z,24.60
2022-12-18T05:23:35.815Z,24.50
2022-12-18T05:26:06.692Z,23.70
2022-12-18T05:28:36.786Z,23.00
2022-12-18T05:31:06.114Z,21.20
2022-12-18T05:33:36.237Z,20.80
2022-12-18T05:36:07.058Z,22.10
2022-12-18T05:38:37.192Z,22.00
2022-12-18T05:41:05.515Z,21.10
2022-12-18T05:43:37.161Z,21.00
2022-12-18T05:46:08.018Z,20.80
2022-12-18T05:48:35.891Z,21.50
2022-12-18T05:51:06.861Z,22.10
2022-12-18T05:53:36.221Z,23.30
2022-12-18T05:56:06.653Z,23.60
2022-12-18T05:58:35.097Z,23.90
2022-12-18T06:01:10.344Z,23.70
2022-12-18T06:03:38.840Z,24.80
2022-12-18T06:06:27.916Z,25.70
2022-12-18T06:08:56.794Z,24.80
2022-12-18T06:11:27.988Z,24.80
2022-12-18T06:13:59.185Z,26.00
2022-12-18T06:16:28.718Z,23.90
2022-12-18T06:18:59.224Z,26.40
2022-12-18T06:21:29.191Z,24.50
2022-12-18T06:23:57.391Z,24.20
2022-12-18T06:26:28.372Z,23.70
2022-12-18T06:28:56.538Z,23.20
2022-12-18T06:31:25.286Z,25.70
2022-12-18T06:33:53.228Z,26.50
2022-12-18T06:36:21.970Z,25.00
2022-12-18T06:38:49.931Z,23.70
2022-12-18T06:41:21.582Z,22.80
2022-12-18T06:43:49.460Z,24.10
2022-12-18T06:46:17.422Z,25.40
2022-12-18T06:48:49.528Z,23.70
2022-12-18T06:51:21.381Z,25.80
2022-12-18T06:53:50.007Z,25.20
2022-12-18T06:56:18.329Z,24.90
2022-12-18T06:58:46.055Z,26.10
2022-12-18T07:01:15.049Z,26.40
2022-12-18T07:03:43.865Z,25.90
2022-12-18T07:06:16.386Z,26.40
2022-12-18T07:08:45.203Z,25.30
2022-12-18T07:11:13.620Z,26.20
2022-12-18T07:13:41.964Z,25.90
2022-12-18T07:16:22.361Z,24.00
2022-12-18T07:18:53.100Z,23.20
2022-12-18T07:21:22.478Z,21.90
2022-12-18T07:23:50.594Z,19.60
2022-12-18T07:26:21.629Z,18.80
2022-12-18T07:28:49.732Z,20.10
2022-12-18T07:31:22.065Z,22.10
2022-12-18T07:33:51.588Z,22.40
2022-12-18T07:36:20.100Z,20.40
2022-12-18T07:38:49.290Z,20.20
2022-12-18T07:41:17.670Z,19.00
2022-12-18T07:43:46.074Z,17.50
2022-12-18T07:46:15.388Z,17.40
2022-12-18T07:48:44.258Z,18.20
2022-12-18T07:51:18.751Z,18.90
2022-12-18T07:53:47.080Z,18.30
2022-12-18T07:56:27.681Z,18.20
2022-12-18T08:01:24.956Z,15.30
2022-12-18T08:03:52.886Z,14.60
2022-12-18T08:06:21.275Z,15.30
2022-12-18T08:08:53.578Z,15.60
2022-12-18T08:11:21.758Z,15.80
2022-12-18T08:13:50.617Z,15.80
2022-12-18T08:16:20.017Z,16.00
2022-12-18T08:18:48.660Z,17.70
2022-12-18T08:21:22.314Z,15.80
2022-12-18T08:23:53.936Z,16.30
2022-12-18T08:26:22.615Z,16.90
2022-12-18T08:28:52.092Z,17.50
2022-12-18T08:31:20.083Z,19.00
2022-12-18T08:33:51.328Z,20.70
2022-12-18T08:36:20.113Z,19.70
2022-12-18T08:38:48.279Z,19.70
2022-12-18T08:41:18.210Z,19.40
2022-12-18T08:44:03.958Z,20.50
2022-12-18T08:46:36.668Z,18.40
2022-12-18T08:49:05.007Z,18.20
2022-12-18T08:51:33.487Z,18.30
2022-12-18T08:54:01.962Z,18.70
2022-12-18T08:56:30.978Z,17.90
2022-12-18T08:58:58.685Z,17.10
2022-12-18T09:01:26.770Z,16.80
2022-12-18T09:03:54.607Z,18.70
2022-12-18T09:06:29.550Z,15.30
2022-12-18T09:08:58.301Z,15.10
2022-12-18T09:11:28.132Z,14.90
2022-12-18T09:13:57.384Z,13.70
2022-12-18T09:16:31.672Z,13.70
2022-12-18T09:19:00.955Z,14.10
2022-12-18T09:21:41.215Z,12.90
2022-12-18T09:24:15.237Z,14.40
2022-12-18T09:26:47.401Z,14.10
2022-12-18T09:29:19.001Z,13.70
2022-12-18T09:31:47.984Z,14.30
2022-12-18T09:34:16.351Z,13.50
2022-12-18T09:36:44.460Z,15.50
2022-12-18T09:39:12.244Z,15.80
2022-12-18T09:41:51.136Z,16.20
2022-12-18T09:44:27.119Z,15.80
2022-12-18T09:47:07.889Z,14.60
2022-12-18T09:49:41.654Z,15.20
2022-12-18T09:52:15.559Z,14.70
2022-12-18T09:54:49.051Z,13.10
2022-12-18T09:57:22.154Z,13.90
2022-12-18T09:59:56.001Z,12.40
2022-12-18T10:02:26.853Z,10.80
2022-12-18T10:05:07.708Z,14.20
2022-12-18T10:08:03.583Z,12.10
2022-12-18T10:10:47.594Z,13.00
2022-12-18T10:13:34.205Z,12.80
2022-12-18T10:16:17.197Z,13.30
2022-12-18T10:19:16.948Z,14.70
2022-12-18T10:21:57.487Z,14.50
2022-12-18T10:24:50.369Z,11.90
2022-12-18T10:27:24.373Z,10.30
2022-12-18T10:29:52.280Z,10.50
2022-12-18T10:32:26.051Z,10.20
2022-12-18T10:35:00.407Z,10.60
2022-12-18T10:37:30.626Z,9.80
2022-12-18T10:40:21.841Z,10.30
2022-12-18T10:43:13.136Z,11.10
2022-12-18T10:45:41.947Z,10.40
2022-12-18T10:48:23.616Z,9.70
2022-12-18T10:53:43.656Z,11.20
2022-12-18T10:56:11.874Z,10.50
2022-12-18T10:58:41.226Z,10.60
2022-12-18T11:01:17.126Z,11.10
2022-12-18T11:04:02.464Z,8.90
2022-12-18T11:06:30.901Z,8.60
2022-12-18T11:09:03.672Z,8.60
2022-12-18T11:11:34.246Z,8.20
2022-12-18T11:14:18.659Z,8.50
2022-12-18T11:17:23.684Z,10.50
2022-12-18T11:19:40.752Z,8.00
2022-12-18T11:22:28.727Z,9.90
2022-12-18T11:28:05.827Z,8.20
2022-12-18T11:30:36.143Z,10.30
2022-12-18T11:33:17.567Z,9.20
2022-12-18T11:36:04.756Z,9.30
2022-12-18T11:38:37.028Z,9.00
2022-12-18T11:41:22.228Z,8.70
2022-12-18T11:44:00.171Z,9.30
2022-12-18T11:46:37.077Z,8.30
2022-12-18T11:49:15.190Z,8.50
2022-12-18T11:51:50.060Z,8.30
2022-12-18T11:54:17.886Z,8.70
2022-12-18T11:56:54.792Z,8.70
2022-12-18T11:59:37.983Z,8.40
2022-12-18T12:02:36.362Z,8.60
2022-12-18T12:05:19.965Z,9.10
2022-12-18T12:07:58.926Z,9.00
2022-12-18T12:10:43.112Z,8.60
2022-12-18T12:13:39.769Z,7.40
2022-12-18T12:16:30.117Z,7.10
2022-12-18T12:19:21.657Z,7.30
2022-12-18T12:22:03.528Z,7.10
2022-12-18T12:25:07.466Z,7.10
2022-12-18T12:27:55.459Z,6.90
2022-12-18T12:30:39.910Z,7.20
2022-12-18T12:33:22.752Z,6.70
2022-12-18T12:36:18.247Z,7.70
2022-12-18T12:38:53.162Z,8.50
2022-12-18T12:41:38.396Z,8.50
2022-12-18T12:44:14.003Z,7.90
2022-12-18T12:46:43.338Z,7.80
2022-12-18T12:49:16.829Z,8.10
2022-12-18T12:51:48.680Z,8.70
2022-12-18T12:54:20.945Z,7.60
2022-12-18T12:56:57.276Z,8.60
2022-12-18T12:59:39.631Z,8.60
2022-12-18T13:02:24.698Z,8.60
2022-12-18T13:05:03.133Z,8.80
2022-12-18T13:07:40.726Z,8.20
2022-12-18T13:10:27.183Z,9.70
2022-12-18T13:12:59.859Z,9.80
2022-12-18T13:15:41.712Z,10.20
2022-12-18T13:18:17.413Z,8.40
2022-12-18T13:21:04.153Z,7.20
2022-12-18T13:23:37.271Z,7.90
2022-12-18T13:26:30.211Z,8.00
2022-12-18T13:28:59.868Z,7.60
2022-12-18T13:31:59.776Z,8.60
2022-12-18T13:34:32.192Z,9.50
2022-12-18T13:37:32.323Z,9.10
2022-12-18T13:40:00.387Z,8.90
2022-12-18T13:43:02.317Z,8.70
2022-12-18T13:45:39.866Z,10.20
2022-12-18T13:48:24.363Z,8.70
2022-12-18T13:50:57.940Z,9.70
2022-12-18T13:53:31.630Z,10.00
2022-12-18T13:56:00.105Z,10.80
2022-12-18T13:58:28.455Z,11.70
2022-12-18T14:00:56.320Z,11.80
2022-12-18T14:03:27.813Z,13.00
2022-12-18T14:06:02.721Z,14.00
2022-12-18T14:08:38.238Z,14.70
2022-12-18T14:11:08.321Z,15.00
2022-12-18T14:13:43.011Z,14.80
2022-12-18T14:16:15.701Z,15.80
2022-12-18T14:18:58.536Z,14.70
2022-12-18T14:21:36.120Z,15.20
2022-12-18T14:24:14.194Z,16.20
2022-12-18T14:26:43.774Z,16.50
2022-12-18T14:29:26.752Z,17.90
2022-12-18T14:32:14.903Z,16.40
2022-12-18T14:34:48.318Z,16.70
2022-12-18T14:37:26.740Z,15.90
2022-12-18T14:39:59.112Z,17.90
2022-12-18T14:42:29.334Z,16.90
2022-12-18T14:45:41.537Z,16.10
2022-12-18T14:48:24.446Z,15.40
2022-12-18T14:51:04.114Z,14.90
2022-12-18T14:53:53.981Z,14.50
2022-12-18T14:56:26.444Z,14.80
2022-12-18T14:58:57.772Z,14.10
2022-12-18T15:01:34.375Z,15.10
2022-12-18T15:04:04.108Z,14.00
2022-12-18T15:06:38.445Z,15.80
2022-12-18T15:09:23.855Z,14.00
2022-12-18T15:11:58.397Z,15.10
2022-12-18T15:14:42.366Z,15.00
2022-12-18T15:17:20.806Z,15.80
2022-12-18T15:19:51.203Z,15.50
2022-12-18T15:22:34.710Z,16.30
2022-12-18T15:25:05.212Z,18.00
2022-12-18T15:27:38.602Z,16.70
2022-12-18T15:30:26.684Z,18.10
2022-12-18T15:33:23.465Z,19.00
2022-12-18T15:36:00.823Z,17.60
2022-12-18T15:38:28.701Z,17.50
2022-12-18T15:40:56.608Z,17.50
2022-12-18T15:43:40.461Z,17.80
2022-12-18T15:46:21.662Z,18.20
2022-12-18T15:48:55.534Z,18.80
2022-12-18T15:51:32.398Z,20.80
2022-12-18T15:54:04.815Z,20.00
2022-12-18T15:56:50.746Z,19.50
2022-12-18T15:59:21.126Z,18.70
2022-12-18T16:01:51.870Z,18.90
2022-12-18T16:04:22.188Z,18.50
2022-12-18T16:07:13.689Z,20.30
2022-12-18T16:09:38.277Z,22.20
2022-12-18T16:12:10.869Z,22.30
2022-12-18T16:14:38.853Z,20.50
2022-12-18T16:17:11.723Z,23.80
2022-12-18T16:19:39.591Z,22.00
2022-12-18T16:22:18.923Z,22.80
2022-12-18T16:24:46.708Z,21.40
2022-12-18T16:27:14.770Z,20.80
2022-12-18T16:29:42.639Z,20.20
2022-12-18T16:32:14.917Z,19.70
2022-12-18T16:34:44.482Z,18.60
2022-12-18T16:37:14.559Z,19.30
2022-12-18T16:39:42.747Z,19.30
2022-12-18T16:42:17.842Z,18.60
2022-12-18T16:44:47.581Z,18.70
2022-12-18T16:47:17.186Z,18.60
2022-12-18T16:49:45.985Z,17.70
2022-12-18T16:52:14.709Z,18.00
2022-12-18T16:54:42.914Z,17.80
2022-12-18T16:57:17.952Z,18.10
2022-12-18T16:59:46.331Z,17.20
2022-12-18T17:02:24.993Z,18.30
2022-12-18T17:04:56.064Z,17.30
2022-12-18T17:07:25.224Z,17.50
2022-12-18T17:09:54.576Z,17.50
2022-12-18T17:12:22.997Z,18.20
2022-12-18T17:14:51.361Z,19.00
2022-12-18T17:17:22.244Z,19.40
2022-12-18T17:19:51.915Z,19.80
2022-12-18T17:22:21.132Z,19.50
2022-12-18T17:24:49.017Z,20.20
2022-12-18T17:27:16.837Z,19.30
2022-12-18T17:29:48.284Z,19.00
2022-12-18T17:32:17.925Z,20.70
2022-12-18T17:34:46.278Z,19.80
2022-12-18T17:37:14.566Z,19.30
2022-12-18T17:39:42.400Z,19.80
2022-12-18T17:42:14.798Z,18.60
2022-12-18T17:44:44.303Z,19.60
2022-12-18T17:47:13.626Z,20.20
2022-12-18T17:49:41.892Z,19.90
2022-12-18T17:52:09.832Z,21.00
2022-12-18T17:54:39.961Z,20.70
2022-12-18T17:57:08.367Z,21.20
2022-12-18T17:59:36.466Z,20.30
2022-12-18T18:02:05.344Z,21.00
2022-12-18T18:04:37.385Z,22.60
2022-12-18T18:07:08.442Z,21.30
2022-12-18T18:09:36.212Z,22.30
2022-12-18T18:12:19.224Z,22.70
2022-12-18T18:14:47.050Z,22.90
2022-12-18T18:17:17.500Z,22.00
2022-12-18T18:19:47.428Z,22.90
2022-12-18T18:22:18.888Z,22.80
2022-12-18T18:24:47.002Z,23.00
2022-12-18T18:27:15.196Z,23.70
2022-12-18T18:29:43.196Z,24.00
2022-12-18T18:32:10.985Z,23.00
2022-12-18T18:34:38.881Z,21.80
2022-12-18T18:37:07.620Z,22.40
2022-12-18T18:39:35.996Z,23.30
2022-12-18T18:42:03.976Z,22.80
2022-12-18T18:44:32.289Z,22.40
2022-12-18T18:47:00.124Z,22.00
2022-12-18T18:49:29.848Z,22.10
2022-12-18T18:51:58.163Z,22.30
2022-12-18T18:54:26.120Z,23.80
2022-12-18T18:59:42.978Z,22.00
2022-12-18T19:02:13.353Z,22.20
2022-12-18T19:04:45.793Z,21.30
2022-12-18T19:07:29.338Z,23.50
2022-12-18T19:10:04.808Z,23.10
2022-12-18T19:12:53.230Z,21.60
2022-12-18T19:15:22.775Z,21.50
2022-12-18T19:17:50.889Z,22.10
2022-12-18T19:20:19.166Z,22.20
2022-12-18T19:22:51.997Z,21.30
2022-12-18T19:25:38.040Z,21.40
2022-12-18T19:28:21.210Z,22.10
2022-12-18T19:30:56.343Z,21.70
2022-12-18T19:33:45.221Z,22.70
2022-12-18T19:36:19.015Z,22.90
2022-12-18T19:38:47.881Z,23.20
2022-12-18T19:41:17.756Z,22.00
2022-12-18T19:43:46.776Z,22.40
2022-12-18T19:46:17.882Z,22.80
2022-12-18T19:48:46.709Z,20.60
2022-12-18T19:51:22.409Z,23.20
2022-12-18T19:53:56.428Z,21.20
2022-12-18T19:56:29.707Z,22.30
2022-12-18T19:58:57.725Z,23.80
2022-12-18T20:01:27.845Z,24.80
2022-12-18T20:03:57.433Z,23.80
2022-12-18T20:06:32.965Z,23.20
2022-12-18T20:09:04.160Z,23.70
2022-12-18T20:11:36.360Z,23.00
2022-12-18T20:14:10.952Z,22.20
2022-12-18T20:16:39.201Z,22.80
2022-12-18T20:19:07.216Z,23.80
2022-12-18T20:21:35.975Z,24.10
2022-12-18T20:24:06.909Z,22.20
2022-12-18T20:26:34.709Z,22.50
2022-12-18T20:29:02.475Z,21.50
2022-12-18T20:31:30.289Z,20.70
2022-12-18T20:34:01.535Z,21.80
2022-12-18T20:36:31.684Z,19.70
2022-12-18T20:39:02.660Z,20.20
2022-12-18T20:41:37.673Z,19.30
2022-12-18T20:44:09.581Z,18.40
2022-12-18T20:46:54.560Z,18.60
2022-12-18T20:49:24.770Z,17.40
2022-12-18T20:51:54.715Z,18.00
2022-12-18T20:54:27.562Z,18.80
2022-12-18T20:56:56.433Z,19.50
2022-12-18T20:59:25.692Z,20.90
2022-12-18T21:01:54.075Z,21.40
2022-12-18T21:04:22.519Z,21.30
2022-12-18T21:06:57.844Z,22.10
2022-12-18T21:09:37.558Z,21.00
2022-12-18T21:12:40.585Z,21.30
2022-12-18T21:15:16.073Z,23.00
2022-12-18T21:17:46.939Z,20.90
2022-12-18T21:20:17.917Z,21.20
2022-12-18T21:22:46.948Z,21.10
2022-12-18T21:25:14.759Z,20.10
2022-12-18T21:27:42.524Z,21.80
2022-12-18T21:30:10.755Z,23.20
2022-12-18T21:32:38.427Z,24.40
2022-12-18T21:35:06.607Z,25.10
2022-12-18T21:37:34.568Z,25.60
2022-12-18T21:40:02.413Z,23.60
2022-12-18T21:42:44.617Z,24.60
2022-12-18T21:45:12.393Z,24.90
2022-12-18T21:47:40.112Z,24.30
2022-12-18T21:50:08.602Z,24.30
2022-12-18T21:52:36.316Z,23.30
2022-12-18T21:55:09.600Z,22.10
2022-12-18T21:57:39.127Z,22.10
2022-12-18T22:00:10.478Z,21.30
2022-12-18T22:02:40.883Z,21.50
2022-12-18T22:05:09.030Z,19.10
2022-12-18T22:07:36.857Z,18.80
2022-12-18T22:10:04.953Z,18.50
2022-12-18T22:12:43.988Z,17.30
2022-12-18T22:15:20.387Z,19.30
2022-12-18T22:17:51.153Z,18.50
2022-12-18T22:20:29.802Z,18.10
2022-12-18T22:22:58.685Z,19.60
2022-12-18T22:25:28.827Z,19.10
2022-12-18T22:28:06.891Z,18.80
2022-12-18T22:30:35.299Z,19.60
2022-12-18T22:33:03.823Z,20.70
2022-12-18T22:35:31.553Z,19.50
2022-12-18T22:38:00.118Z,19.30
2022-12-18T22:40:29.168Z,19.10
2022-12-18T22:42:57.021Z,20.40
2022-12-18T22:45:26.308Z,20.70
2022-12-18T22:47:54.129Z,20.70
2022-12-18T22:50:21.948Z,22.20
2022-12-18T22:52:49.685Z,20.70
2022-12-18T22:55:17.418Z,20.10
2022-12-18T22:57:48.734Z,21.40
2022-12-18T23:00:21.001Z,21.60
2022-12-18T23:02:59.856Z,22.00
2022-12-18T23:05:30.853Z,23.30
2022-12-18T23:07:59.289Z,25.00
2022-12-18T23:10:27.560Z,24.60
2022-12-18T23:12:55.368Z,24.20
2022-12-18T23:15:27.609Z,22.00
2022-12-18T23:17:58.647Z,25.20
2022-12-18T23:20:27.711Z,22.40
2022-12-18T23:22:55.748Z,23.30
2022-12-18T23:25:23.527Z,21.20
2022-12-18T23:27:51.438Z,22.80
2022-12-18T23:30:19.195Z,20.70
2022-12-18T23:32:47.070Z,22.40
2022-12-18T23:35:15.817Z,23.10
2022-12-18T23:38:00.553Z,21.60
2022-12-18T23:40:29.801Z,23.90
2022-12-18T23:42:59.039Z,23.90
2022-12-18T23:45:26.801Z,22.10
2022-12-18T23:47:54.527Z,23.10
2022-12-18T23:50:24.022Z,23.20
2022-12-18T23:53:05.173Z,24.20
2022-12-18T23:55:39.292Z,23.20
2022-12-18T23:58:22.557Z,22.30
